Flight Track Log - Related Links

Times and Time Zones

All times are in EDT time to prevent confusion due to time zone crossing. See the AWE1454 flight status page for this flight to view local times or setup timezone preferences in your user account.

Time Position Orientation Groundspeed Altitude Reporting Facility
EDT Latitude Longitude Course Direction KTS MPH feet Rate Location/Type
Wed 01:18:53 PM 33.6306 -84.4806 58° Northeast 433 498 2,600  Level Atlanta Center
Wed 01:19:15 PM 33.6167 -84.5000 229° Southwest 193 222 3,000 1,773 Climbing Atlanta TRACON
Wed 01:20:00 PM 33.8646 -84.1326 54° Northeast  Level Estimated
Wed 01:20:21 PM 33.5833 -84.5667 239° Southwest 254 292 5,200  Level Atlanta TRACON
Wed 01:21:00 PM 33.8655 -83.9982 89° East  Level FlightAware Approximate
Wed 01:21:21 PM 33.5167 -84.5833 192° South 274 315 7,900  Level Atlanta TRACON
Wed 01:22:00 PM 33.8663 -83.8637 90° East  Level FlightAware Approximate
Wed 01:22:53 PM 33.4553 -84.4744 124° Southeast 307 353 10,800  Level Atlanta Center
Wed 01:23:00 PM 33.9432 -83.7662 53° Northeast  Level Estimated
Wed 01:23:53 PM 33.4558 -84.3475 90° East 338 389 12,300  Level Atlanta Center
Wed 01:24:00 PM 34.0022 -83.6519 58° Northeast  Level FlightAware Approximate
Wed 01:24:53 PM 33.5103 -84.2456 57° Northeast 369 425 14,100  Level Atlanta Center
Wed 01:25:53 PM 33.6064 -84.1786 30° Northeast 379 436 15,800 1,650 Climbing Atlanta Center
Wed 01:26:53 PM 33.6858 -84.0789 46° Northeast 398 458 17,400 1,500 Climbing Atlanta Center
Wed 01:27:53 PM 33.7586 -83.9714 51° Northeast 413 475 18,800 1,400 Climbing Atlanta Center
Wed 01:28:53 PM 33.8358 -83.8564 51° Northeast 433 498 20,200 1,450 Climbing Atlanta Center
Wed 01:29:53 PM 33.9192 -83.7308 51° Northeast 438 504 21,700 1,400 Climbing Atlanta Center
Wed 01:30:53 PM 33.9981 -83.6128 51° Northeast 444 511 23,000 1,300 Climbing Atlanta Center
Wed 01:31:53 PM 34.0747 -83.4894 53° Northeast 449 517 24,300 1,250 Climbing Atlanta Center
Wed 01:32:53 PM 34.1514 -83.3661 53° Northeast 456 525 25,500 1,100 Climbing Atlanta Center
Wed 01:33:53 PM 34.2278 -83.2422 53° Northeast 456 525 26,500 900 Climbing Atlanta Center
Wed 01:34:53 PM 34.3083 -83.1133 53° Northeast 473 544 27,300 950 Climbing Atlanta Center
Wed 01:35:53 PM 34.3867 -82.9867 53° Northeast 473 544 28,400 1,000 Climbing Atlanta Center
Wed 01:36:53 PM 34.4647 -82.8597 53° Northeast 473 544 29,300 950 Climbing Atlanta Center
Wed 01:37:53 PM 34.5408 -82.7300 55° Northeast 473 544 30,300 1,100 Climbing Atlanta Center
Wed 01:38:53 PM 34.6228 -82.6000 53° Northeast 478 550 31,500 1,450 Climbing Atlanta Center
Wed 01:39:53 PM 34.6983 -82.4775 53° Northeast 473 544 33,200 1,300 Climbing Atlanta Center
Wed 01:40:53 PM 34.7761 -82.3519 53° Northeast 467 537 34,100 800 Climbing Atlanta Center
Wed 01:41:53 PM 34.8536 -82.2239 54° Northeast 462 532 34,800 700 Climbing Atlanta Center
Wed 01:42:53 PM 34.9350 -82.0981 52° Northeast 462 532 35,500 700 Climbing Atlanta Center
Wed 01:43:53 PM 35.0103 -81.9694 54° Northeast 469 540 36,200 550 Climbing Atlanta Center
Wed 01:44:53 PM 35.0850 -81.8331 56° Northeast 479 551 36,600 350 Climbing Atlanta Center
Wed 01:45:53 PM 35.1575 -81.6964 57° Northeast 479 551 36,900 200 Climbing Atlanta Center
Wed 01:46:53 PM 35.2319 -81.5519 58° Northeast 493 567 37,000 50 Climbing Atlanta Center
Wed 01:47:53 PM 35.2983 -81.4253 57° Northeast 493 567 37,000  Level Atlanta Center
Wed 01:48:53 PM 35.3722 -81.2803 58° Northeast 493 567 37,000  Level Atlanta Center
Wed 01:49:53 PM 35.4561 -81.1194 57° Northeast 493 567 37,000  Level Atlanta Center
Wed 01:50:53 PM 35.5297 -80.9764 58° Northeast 499 574 37,000  Level Atlanta Center
Wed 01:51:53 PM 35.6033 -80.8358 57° Northeast 499 574 37,000  Level Atlanta Center
Wed 01:52:53 PM 35.6711 -80.7106 56° Northeast 493 567 37,000  Level Atlanta Center
Wed 01:53:53 PM 35.7500 -80.5536 58° Northeast 488 562 37,000  Level Atlanta Center
Wed 01:54:53 PM 35.8172 -80.4228 58° Northeast 493 567 37,000  Level Atlanta Center
Wed 01:55:53 PM 35.8958 -80.2631 59° Northeast 488 562 37,000  Level Atlanta Center
Wed 01:58:19 PM 36.0708 -79.9375 56° Northeast 473 544 37,000  Level Washington Center
Wed 01:59:19 PM 36.1556 -79.7878 55° Northeast 483 556 37,000  Level Washington Center
Wed 02:00:19 PM 36.2244 -79.6628 56° Northeast 483 556 37,000 -800 Level Washington Center
Wed 02:01:19 PM 36.3067 -79.5150 55° Northeast 478 550 35,400 -1,500 Descending Washington Center
Wed 02:02:19 PM 36.3864 -79.3719 55° Northeast 478 550 34,000 -700 Descending Washington Center
Wed 02:03:19 PM 36.4617 -79.2361 55° Northeast 478 550 34,000  Level Washington Center
Wed 02:04:20 PM 36.5428 -79.0975 54° Northeast 478 550 34,000  Level Washington Center
Wed 02:05:19 PM 36.6200 -78.9589 55° Northeast 478 550 34,000  Level Washington Center
Wed 02:06:19 PM 36.6881 -78.8297 57° Northeast 483 556 34,000  Level Washington Center
Wed 02:07:19 PM 36.7736 -78.6775 55° Northeast 493 567 34,000  Level Washington Center
Wed 02:08:19 PM 36.8481 -78.5378 56° Northeast 488 562 34,000  Level Washington Center
Wed 02:09:19 PM 36.9200 -78.4081 55° Northeast 475 547 34,000 -100 Level Washington Center
Wed 02:10:19 PM 36.9853 -78.2856 56° Northeast 468 539 33,800 -650 Descending Washington Center
Wed 02:11:19 PM 37.0753 -78.1769 44° Northeast 461 531 32,700 -900 Descending Washington Center
Wed 02:12:19 PM 37.1919 -78.0869 32° Northeast 437 503 32,000 -446 Descending Washington Center
Wed 02:13:20 PM 37.3097 -78.0439 16° North 432 497 31,800 -496 Descending Washington Center
Wed 02:14:20 PM 37.4294 -78.0006 16° North 432 497 31,000 -400 Descending Washington Center
Wed 02:15:20 PM 37.5356 -77.9094 34° Northeast 447 514 31,000  Level Washington Center
Wed 02:16:20 PM 37.6356 -77.8103 38° Northeast 447 514 31,000  Level Washington Center
Wed 02:17:19 PM 37.7353 -77.7083 39° Northeast 452 520 31,000  Level Washington Center
Wed 02:18:20 PM 37.8372 -77.6111 37° Northeast 457 526 31,000  Level Washington Center
Wed 02:19:20 PM 37.9347 -77.5164 37° Northeast 452 520 31,000 -555 Level Washington Center
Wed 02:20:19 PM 38.0300 -77.4214 38° Northeast 447 514 29,900 -1,500 Descending Washington Center
Wed 02:21:20 PM 38.1106 -77.3414 38° Northeast 425 489 28,000 -1,850 Descending Washington Center
Wed 02:22:19 PM 38.2014 -77.2511 38° Northeast 420 483 26,200 -1,850 Descending Washington Center
Wed 02:23:20 PM 38.2986 -77.1528 38° Northeast 407 468 24,300 -1,091 Descending Washington Center
Wed 02:24:20 PM 38.3725 -77.0828 37° Northeast 393 452 24,000 -150 Descending Washington Center
Wed 02:25:20 PM 38.4547 -76.9969 39° Northeast 381 438 24,000  Level Washington Center
Wed 02:26:20 PM 38.5392 -76.9136 38° Northeast 381 438 24,000  Level Washington Center
Wed 02:27:20 PM 38.6236 -76.8272 39° Northeast 376 433 24,000  Level Washington Center
Wed 02:28:19 PM 38.7014 -76.7381 42° Northeast 376 433 24,000 -650 Level Washington Center
Wed 02:29:20 PM 38.7361 -76.6031 72° East 368 423 22,700 -1,550 Descending Washington Center
Wed 02:30:19 PM 38.7622 -76.4703 76° East 368 423 20,900 -1,765 Descending Washington Center
Wed 02:31:19 PM 38.7839 -76.3533 77° East 376 433 19,200 -1,686 Descending Washington Center
Wed 02:32:20 PM 38.8136 -76.2178 74° East 371 427 17,500 -1,785 Descending Washington Center
Wed 02:33:20 PM 38.8436 -76.0928 73° East 365 420 15,600 -1,311 Descending Washington Center
Wed 02:34:19 PM 38.8689 -75.9728 75° East 355 409 14,900 -350 Descending Washington Center
Wed 02:35:20 PM 38.8964 -75.8503 74° East 355 409 14,900  Level Washington Center
Wed 02:36:20 PM 38.9675 -75.7678 42° Northeast 335 386 14,900 -400 Level Washington Center
Wed 02:37:20 PM 39.0467 -75.6958 35° Northeast 330 380 14,100 -1,271 Descending Washington Center
Wed 02:38:18 PM 39.1378 -75.6692 13° North 315 362 12,400 -1,636 Descending FAA TRACON SMA TRACON (SMA)
Wed 02:38:37 PM 39.1644 -75.6661 North 313 360 12,000 -1,385 Descending FAA TRACON SMA TRACON (SMA)
Wed 02:38:57 PM 39.1908 -75.6631 North 311 358 11,500 -1,610 Descending FAA TRACON SMA TRACON (SMA)
Wed 02:39:18 PM 39.2236 -75.6597 North 308 354 10,900 -1,650 Descending FAA TRACON SMA TRACON (SMA)
Wed 02:39:37 PM 39.2497 -75.6569 North 306 352 10,400 -1,350 Descending FAA TRACON SMA TRACON (SMA)
Wed 02:39:58 PM 39.2758 -75.6533 North 306 352 10,000 -600 Descending FAA TRACON SMA TRACON (SMA)
Wed 02:40:17 PM 39.3047 -75.6358 25° Northeast 292 336 10,000  Level FAA TRACON SMA TRACON (SMA)
Wed 02:40:37 PM 39.3242 -75.6169 37° Northeast 287 330 10,000  Level FAA TRACON SMA TRACON (SMA)
Wed 02:40:57 PM 39.3456 -75.5997 32° Northeast 275 316 10,000  Level FAA TRACON SMA TRACON (SMA)
Wed 02:41:17 PM 39.3686 -75.5800 33° Northeast 273 314 10,000  Level FAA TRACON SMA TRACON (SMA)
Wed 02:41:37 PM 39.3867 -75.5622 37° Northeast 273 314 10,000  Level FAA TRACON SMA TRACON (SMA)
Wed 02:41:57 PM 39.4131 -75.5475 23° Northeast 266 306 10,000  Level FAA TRACON SMA TRACON (SMA)
Wed 02:42:17 PM 39.4339 -75.5556 343° North 249 287 10,000  Level FAA TRACON SMA TRACON (SMA)
Wed 02:42:37 PM 39.4456 -75.5739 309° West 231 266 10,000  Level FAA TRACON SMA TRACON (SMA)
Wed 02:42:57 PM 39.4478 -75.5961 277° West 209 241 10,000  Level FAA TRACON SMA TRACON (SMA)
Wed 02:43:17 PM 39.4375 -75.6233 244° Southwest 224 258 10,000  Level FAA TRACON SMA TRACON (SMA)
Wed 02:43:38 PM 39.4228 -75.6372 216° Southwest 216 249 10,000  Level FAA TRACON SMA TRACON (SMA)
Wed 02:43:56 PM 39.4086 -75.6500 215° Southwest 214 246 10,000  Level FAA TRACON SMA TRACON (SMA)
Wed 02:44:17 PM 39.3900 -75.6694 219° Southwest 215 247 10,000  Level FAA TRACON SMA TRACON (SMA)
Wed 02:44:37 PM 39.3753 -75.6839 217° Southwest 215 247 10,000  Level FAA TRACON SMA TRACON (SMA)
Wed 02:44:58 PM 39.3575 -75.6919 199° South 223 257 10,000  Level FAA TRACON SMA TRACON (SMA)
Wed 02:45:39 PM 39.3231 -75.6542 140° Southeast 272 313 10,000 -400 Level FAA TRACON SMA TRACON (SMA)
Wed 02:45:58 PM 39.3278 -75.6253 78° East 270 311 9,600 -1,231 Descending FAA TRACON SMA TRACON (SMA)
Wed 02:46:18 PM 39.3492 -75.6003 42° Northeast 276 318 9,200 -1,385 Descending FAA TRACON SMA TRACON (SMA)
Wed 02:46:37 PM 39.3625 -75.5758 55° Northeast 262 302 8,700 -1,263 Descending FAA TRACON SMA TRACON (SMA)
Wed 02:46:56 PM 39.3708 -75.5478 69° East 276 318 8,400 -1,231 Descending FAA TRACON SMA TRACON (SMA)
Wed 02:47:16 PM 39.3831 -75.5144 65° Northeast 270 311 7,900 -1,317 Descending FAA TRACON SMA TRACON (SMA)
Wed 02:47:37 PM 39.3958 -75.4886 57° Northeast 264 304 7,500 -1,200 Descending FAA TRACON SMA TRACON (SMA)
Wed 02:47:56 PM 39.4097 -75.4639 54° Northeast 274 315 7,100 -769 Descending FAA TRACON SMA TRACON (SMA)
Wed 02:48:16 PM 39.4239 -75.4400 52° Northeast 273 314 7,000 -439 Descending FAA TRACON SMA TRACON (SMA)
Wed 02:48:37 PM 39.4411 -75.4089 54° Northeast 274 315 6,800 -750 Descending FAA TRACON SMA TRACON (SMA)
Wed 02:48:56 PM 39.4556 -75.3864 50° Northeast 279 321 6,500 -900 Descending FAA TRACON SMA TRACON (SMA)
Wed 02:49:17 PM 39.4744 -75.3564 51° Northeast 272 313 6,200 -900 Descending FAA TRACON SMA TRACON (SMA)
Wed 02:49:36 PM 39.4889 -75.3333 51° Northeast 271 312 5,900 -769 Descending FAA TRACON SMA TRACON (SMA)
Wed 02:49:56 PM 39.5031 -75.3111 50° Northeast 265 305 5,700 -900 Descending FAA TRACON SMA TRACON (SMA)
Wed 02:50:16 PM 39.5206 -75.2839 50° Northeast 257 296 5,300 -1,024 Descending FAA TRACON SMA TRACON (SMA)
Wed 02:50:37 PM 39.5333 -75.2642 50° Northeast 255 293 5,000 -1,050 Descending FAA TRACON SMA TRACON (SMA)
Wed 02:50:56 PM 39.5481 -75.2406 51° Northeast 256 295 4,600 -1,385 Descending FAA TRACON SMA TRACON (SMA)
Wed 02:51:16 PM 39.5650 -75.2133 51° Northeast 253 291 4,100 -878 Descending FAA TRACON SMA TRACON (SMA)
Wed 02:51:37 PM 39.5781 -75.1911 53° Northeast 254 292 4,000 -146 Descending FAA TRACON SMA TRACON (SMA)
Wed 02:51:57 PM 39.5917 -75.1711 49° Northeast 243 280 4,000  Level FAA TRACON SMA TRACON (SMA)
Wed 02:52:17 PM 39.6103 -75.1506 40° Northeast 222 255 4,000  Level FAA TRACON SMA TRACON (SMA)
Wed 02:52:37 PM 39.6253 -75.1314 45° Northeast 242 278 4,000  Level FAA TRACON SMA TRACON (SMA)
Wed 02:52:58 PM 39.6397 -75.1139 43° Northeast 234 269 4,000  Level FAA TRACON SMA TRACON (SMA)
Wed 02:53:17 PM 39.6578 -75.0919 43° Northeast 233 268 4,000  Level FAA TRACON SMA TRACON (SMA)
Wed 02:53:37 PM 39.6722 -75.0744 43° Northeast 232 267 4,000  Level FAA TRACON SMA TRACON (SMA)
Wed 02:53:57 PM 39.6897 -75.0533 43° Northeast 233 268 4,000  Level FAA TRACON SMA TRACON (SMA)
Wed 02:54:17 PM 39.7053 -75.0350 42° Northeast 230 265 4,000  Level FAA TRACON SMA TRACON (SMA)
Wed 02:54:37 PM 39.7217 -75.0236 28° Northeast 219 252 4,000  Level FAA TRACON SMA TRACON (SMA)
Wed 02:54:57 PM 39.7378 -75.0114 30° Northeast 215 247 4,000 -300 Level FAA TRACON SMA TRACON (SMA)
Wed 02:55:17 PM 39.7575 -74.9967 30° Northeast 216 249 3,800 -900 Descending FAA TRACON SMA TRACON (SMA)
Wed 02:55:37 PM 39.7728 -74.9869 26° Northeast 212 244 3,400 -1,200 Descending FAA TRACON SMA TRACON (SMA)
Wed 02:55:57 PM 39.7942 -74.9844 North 192 221 3,000 -600 Descending FAA TRACON SMA TRACON (SMA)
Wed 02:56:17 PM 39.8050 -74.9978 317° Northwest 190 219 3,000 -585 Level FAA TRACON SMA TRACON (SMA)
Wed 02:56:38 PM 39.8161 -75.0147 310° West 177 204 2,600 -1,286 Descending FAA TRACON SMA TRACON (SMA)
Wed 02:56:59 PM 39.8289 -75.0336 311° West 193 222 2,100 -878 Descending FAA TRACON SMA TRACON (SMA)
Wed 02:57:19 PM 39.8397 -75.0503 310° West 187 215 2,000 -150 Descending FAA TRACON SMA TRACON (SMA)
Wed 02:57:39 PM 39.8503 -75.0661 311° West 187 215 2,000  Level FAA TRACON SMA TRACON (SMA)
Wed 02:57:59 PM 39.8589 -75.0869 298° West 163 188 2,000 -450 Level FAA TRACON SMA TRACON (SMA)
Wed 02:58:19 PM 39.8619 -75.1042 283° West 160 184 1,700 -900 Descending FAA TRACON SMA TRACON (SMA)

Login

Don't have an account? Register now (free) for customized features, flight alerts, and more!